sensor_id;sensor_type;location;lat;lon;timestamp;temperature;humidity
13673;DHT22;6909;52.202;9.876;2023-06-10T00:01:33;17.30;1.00
13673;DHT22;6909;52.202;9.876;2023-06-10T00:04:03;17.30;1.00
13673;DHT22;6909;52.202;9.876;2023-06-10T00:06:30;17.20;1.00
13673;DHT22;6909;52.202;9.876;2023-06-10T00:09:01;17.10;1.00
13673;DHT22;6909;52.202;9.876;2023-06-10T00:11:30;17.00;1.00
13673;DHT22;6909;52.202;9.876;2023-06-10T00:13:56;17.00;1.00
13673;DHT22;6909;52.202;9.876;2023-06-10T00:16:23;17.00;1.00
13673;DHT22;6909;52.202;9.876;2023-06-10T00:18:50;16.90;1.00
13673;DHT22;6909;52.202;9.876;2023-06-10T00:21:18;16.90;1.00
13673;DHT22;6909;52.202;9.876;2023-06-10T00:23:45;16.70;1.00
13673;DHT22;6909;52.202;9.876;2023-06-10T00:26:12;16.60;1.00
13673;DHT22;6909;52.202;9.876;2023-06-10T00:28:38;16.50;1.00
13673;DHT22;6909;52.202;9.876;2023-06-10T00:31:05;16.40;1.00
13673;DHT22;6909;52.202;9.876;2023-06-10T00:33:32;16.40;1.00
13673;DHT22;6909;52.202;9.876;2023-06-10T00:35:58;16.30;1.00
13673;DHT22;6909;52.202;9.876;2023-06-10T00:38:26;16.20;1.00
13673;DHT22;6909;52.202;9.876;2023-06-10T00:40:53;16.20;1.00
13673;DHT22;6909;52.202;9.876;2023-06-10T00:43:20;16.20;1.00
13673;DHT22;6909;52.202;9.876;2023-06-10T00:45:46;16.10;1.00
13673;DHT22;6909;52.202;9.876;2023-06-10T00:48:13;16.00;1.00
13673;DHT22;6909;52.202;9.876;2023-06-10T00:50:40;15.90;1.00
13673;DHT22;6909;52.202;9.876;2023-06-10T00:53:06;15.80;1.00
13673;DHT22;6909;52.202;9.876;2023-06-10T00:55:35;15.70;1.00
13673;DHT22;6909;52.202;9.876;2023-06-10T00:58:03;15.60;1.00
13673;DHT22;6909;52.202;9.876;2023-06-10T01:00:30;15.60;1.00
13673;DHT22;6909;52.202;9.876;2023-06-10T01:02:56;15.50;1.00
13673;DHT22;6909;52.202;9.876;2023-06-10T01:05:24;15.40;1.00
13673;DHT22;6909;52.202;9.876;2023-06-10T01:07:58;15.30;1.00
13673;DHT22;6909;52.202;9.876;2023-06-10T01:10:33;15.30;1.00
13673;DHT22;6909;52.202;9.876;2023-06-10T01:13:03;15.20;1.00
13673;DHT22;6909;52.202;9.876;2023-06-10T01:15:30;15.20;1.00
13673;DHT22;6909;52.202;9.876;2023-06-10T01:17:58;15.10;1.00
13673;DHT22;6909;52.202;9.876;2023-06-10T01:20:25;15.00;1.00
13673;DHT22;6909;52.202;9.876;2023-06-10T01:22:55;15.00;41.20
13673;DHT22;6909;52.202;9.876;2023-06-10T01:25:23;14.90;96.30
13673;DHT22;6909;52.202;9.876;2023-06-10T01:27:55;14.80;99.90
13673;DHT22;6909;52.202;9.876;2023-06-10T01:30:27;14.80;99.90
13673;DHT22;6909;52.202;9.876;2023-06-10T01:32:59;14.70;1.00
13673;DHT22;6909;52.202;9.876;2023-06-10T01:35:29;14.60;1.00
13673;DHT22;6909;52.202;9.876;2023-06-10T01:37:58;14.60;1.00
13673;DHT22;6909;52.202;9.876;2023-06-10T01:40:26;14.50;1.00
13673;DHT22;6909;52.202;9.876;2023-06-10T01:42:53;14.40;1.00
13673;DHT22;6909;52.202;9.876;2023-06-10T01:45:20;14.40;1.00
13673;DHT22;6909;52.202;9.876;2023-06-10T01:47:47;14.30;1.00
13673;DHT22;6909;52.202;9.876;2023-06-10T01:50:14;14.30;99.90
13673;DHT22;6909;52.202;9.876;2023-06-10T01:52:41;14.20;99.90
13673;DHT22;6909;52.202;9.876;2023-06-10T01:55:10;14.20;1.00
13673;DHT22;6909;52.202;9.876;2023-06-10T01:57:36;14.10;1.00
13673;DHT22;6909;52.202;9.876;2023-06-10T02:00:04;14.10;1.00
13673;DHT22;6909;52.202;9.876;2023-06-10T02:02:30;14.00;1.00
13673;DHT22;6909;52.202;9.876;2023-06-10T02:04:57;14.00;16.90
13673;DHT22;6909;52.202;9.876;2023-06-10T02:07:24;13.90;99.90
13673;DHT22;6909;52.202;9.876;2023-06-10T02:09:50;13.80;99.90
13673;DHT22;6909;52.202;9.876;2023-06-10T02:12:18;13.80;99.90
13673;DHT22;6909;52.202;9.876;2023-06-10T02:14:45;13.80;1.00
13673;DHT22;6909;52.202;9.876;2023-06-10T02:17:11;13.70;1.00
13673;DHT22;6909;52.202;9.876;2023-06-10T02:19:40;13.70;1.00
13673;DHT22;6909;52.202;9.876;2023-06-10T02:22:08;13.70;1.00
13673;DHT22;6909;52.202;9.876;2023-06-10T02:24:35;13.70;1.00
13673;DHT22;6909;52.202;9.876;2023-06-10T02:27:04;13.60;1.00
13673;DHT22;6909;52.202;9.876;2023-06-10T02:29:33;13.50;58.90
13673;DHT22;6909;52.202;9.876;2023-06-10T02:32:01;13.50;99.90
13673;DHT22;6909;52.202;9.876;2023-06-10T02:34:28;13.40;10.40
13673;DHT22;6909;52.202;9.876;2023-06-10T02:36:55;13.40;31.10
13673;DHT22;6909;52.202;9.876;2023-06-10T02:39:22;13.30;17.00
13673;DHT22;6909;52.202;9.876;2023-06-10T02:41:48;13.20;99.90
13673;DHT22;6909;52.202;9.876;2023-06-10T02:44:16;13.10;99.90
13673;DHT22;6909;52.202;9.876;2023-06-10T02:46:44;13.00;99.90
13673;DHT22;6909;52.202;9.876;2023-06-10T02:49:11;13.00;99.90
13673;DHT22;6909;52.202;9.876;2023-06-10T02:51:38;12.80;1.00
13673;DHT22;6909;52.202;9.876;2023-06-10T02:54:05;12.80;1.00
13673;DHT22;6909;52.202;9.876;2023-06-10T02:56:32;12.70;1.00
13673;DHT22;6909;52.202;9.876;2023-06-10T02:58:58;12.60;66.10
13673;DHT22;6909;52.202;9.876;2023-06-10T03:01:26;12.60;99.90
13673;DHT22;6909;52.202;9.876;2023-06-10T03:03:54;12.60;1.00
13673;DHT22;6909;52.202;9.876;2023-06-10T03:06:21;12.50;1.00
13673;DHT22;6909;52.202;9.876;2023-06-10T03:08:49;12.50;99.90
13673;DHT22;6909;52.202;9.876;2023-06-10T03:11:16;12.50;1.00
13673;DHT22;6909;52.202;9.876;2023-06-10T03:13:44;12.50;1.00
13673;DHT22;6909;52.202;9.876;2023-06-10T03:16:12;12.50;1.00
13673;DHT22;6909;52.202;9.876;2023-06-10T03:18:38;12.50;99.90
13673;DHT22;6909;52.202;9.876;2023-06-10T03:21:06;12.50;99.90
13673;DHT22;6909;52.202;9.876;2023-06-10T03:23:34;12.50;91.60
13673;DHT22;6909;52.202;9.876;2023-06-10T03:26:00;12.50;48.40
13673;DHT22;6909;52.202;9.876;2023-06-10T03:28:27;12.50;31.80
13673;DHT22;6909;52.202;9.876;2023-06-10T03:30:54;12.50;17.80
13673;DHT22;6909;52.202;9.876;2023-06-10T03:33:20;12.50;99.90
13673;DHT22;6909;52.202;9.876;2023-06-10T03:35:47;12.50;99.90
13673;DHT22;6909;52.202;9.876;2023-06-10T03:38:15;12.40;1.00
13673;DHT22;6909;52.202;9.876;2023-06-10T03:40:42;12.40;99.90
13673;DHT22;6909;52.202;9.876;2023-06-10T03:43:09;12.40;7.70
13673;DHT22;6909;52.202;9.876;2023-06-10T03:45:35;12.40;1.00
13673;DHT22;6909;52.202;9.876;2023-06-10T03:48:03;12.50;99.90
13673;DHT22;6909;52.202;9.876;2023-06-10T03:50:29;12.60;99.90
13673;DHT22;6909;52.202;9.876;2023-06-10T03:52:58;12.70;99.90
13673;DHT22;6909;52.202;9.876;2023-06-10T03:55:26;12.70;1.00
13673;DHT22;6909;52.202;9.876;2023-06-10T03:57:52;12.70;99.90
13673;DHT22;6909;52.202;9.876;2023-06-10T04:00:19;12.70;1.00
13673;DHT22;6909;52.202;9.876;2023-06-10T04:02:47;12.70;1.00
13673;DHT22;6909;52.202;9.876;2023-06-10T04:05:15;12.60;99.90
13673;DHT22;6909;52.202;9.876;2023-06-10T04:07:43;12.60;1.00
13673;DHT22;6909;52.202;9.876;2023-06-10T04:10:11;12.60;99.90
13673;DHT22;6909;52.202;9.876;2023-06-10T04:12:39;12.70;99.90
13673;DHT22;6909;52.202;9.876;2023-06-10T04:15:06;12.80;1.00
13673;DHT22;6909;52.202;9.876;2023-06-10T04:17:34;12.90;1.00
13673;DHT22;6909;52.202;9.876;2023-06-10T04:20:00;12.90;99.90
13673;DHT22;6909;52.202;9.876;2023-06-10T04:22:29;12.90;1.00
13673;DHT22;6909;52.202;9.876;2023-06-10T04:24:56;13.10;1.00
13673;DHT22;6909;52.202;9.876;2023-06-10T04:27:23;13.80;1.00
13673;DHT22;6909;52.202;9.876;2023-06-10T04:29:51;14.80;99.90
13673;DHT22;6909;52.202;9.876;2023-06-10T04:32:17;15.90;99.90
13673;DHT22;6909;52.202;9.876;2023-06-10T04:34:44;16.60;99.90
13673;DHT22;6909;52.202;9.876;2023-06-10T04:37:11;17.10;99.90
13673;DHT22;6909;52.202;9.876;2023-06-10T04:39:37;17.20;99.90
13673;DHT22;6909;52.202;9.876;2023-06-10T04:42:04;17.90;99.90
13673;DHT22;6909;52.202;9.876;2023-06-10T04:44:31;18.00;99.90
13673;DHT22;6909;52.202;9.876;2023-06-10T04:46:59;18.00;99.90
13673;DHT22;6909;52.202;9.876;2023-06-10T04:49:26;18.90;99.90
13673;DHT22;6909;52.202;9.876;2023-06-10T04:51:54;18.00;99.90
13673;DHT22;6909;52.202;9.876;2023-06-10T04:54:20;18.60;99.90
13673;DHT22;6909;52.202;9.876;2023-06-10T04:56:47;18.20;99.90
13673;DHT22;6909;52.202;9.876;2023-06-10T04:59:14;18.10;99.90
13673;DHT22;6909;52.202;9.876;2023-06-10T05:01:40;17.60;99.90
13673;DHT22;6909;52.202;9.876;2023-06-10T05:04:08;17.30;99.90
13673;DHT22;6909;52.202;9.876;2023-06-10T05:06:35;17.20;99.90
13673;DHT22;6909;52.202;9.876;2023-06-10T05:09:02;17.10;99.90
13673;DHT22;6909;52.202;9.876;2023-06-10T05:11:29;17.00;99.90
13673;DHT22;6909;52.202;9.876;2023-06-10T05:13:56;16.60;99.90
13673;DHT22;6909;52.202;9.876;2023-06-10T05:16:22;16.10;99.90
13673;DHT22;6909;52.202;9.876;2023-06-10T05:18:49;16.10;99.90
13673;DHT22;6909;52.202;9.876;2023-06-10T05:21:18;15.70;99.90
13673;DHT22;6909;52.202;9.876;2023-06-10T05:23:45;15.70;99.90
13673;DHT22;6909;52.202;9.876;2023-06-10T05:26:12;15.40;99.90
13673;DHT22;6909;52.202;9.876;2023-06-10T05:28:39;14.80;99.90
13673;DHT22;6909;52.202;9.876;2023-06-10T05:31:05;14.50;99.90
13673;DHT22;6909;52.202;9.876;2023-06-10T05:33:32;14.30;99.90
13673;DHT22;6909;52.202;9.876;2023-06-10T05:35:59;14.10;99.90
13673;DHT22;6909;52.202;9.876;2023-06-10T05:38:27;14.20;99.90
13673;DHT22;6909;52.202;9.876;2023-06-10T05:40:54;14.00;99.90
13673;DHT22;6909;52.202;9.876;2023-06-10T05:43:22;13.90;99.90
13673;DHT22;6909;52.202;9.876;2023-06-10T05:45:49;13.90;99.90
13673;DHT22;6909;52.202;9.876;2023-06-10T05:48:15;13.80;99.90
13673;DHT22;6909;52.202;9.876;2023-06-10T05:50:42;14.00;99.90
13673;DHT22;6909;52.202;9.876;2023-06-10T05:53:13;14.00;99.90
13673;DHT22;6909;52.202;9.876;2023-06-10T05:55:42;14.00;99.90
13673;DHT22;6909;52.202;9.876;2023-06-10T05:58:09;14.20;99.90
13673;DHT22;6909;52.202;9.876;2023-06-10T06:00:37;14.30;99.90
13673;DHT22;6909;52.202;9.876;2023-06-10T06:03:06;14.20;99.90
13673;DHT22;6909;52.202;9.876;2023-06-10T06:05:32;14.10;99.90
13673;DHT22;6909;52.202;9.876;2023-06-10T06:08:00;14.40;99.90
13673;DHT22;6909;52.202;9.876;2023-06-10T06:10:27;14.50;99.90
13673;DHT22;6909;52.202;9.876;2023-06-10T06:12:55;14.30;99.90
13673;DHT22;6909;52.202;9.876;2023-06-10T06:15:22;14.30;99.90
13673;DHT22;6909;52.202;9.876;2023-06-10T06:17:49;14.50;99.90
13673;DHT22;6909;52.202;9.876;2023-06-10T06:20:17;14.50;99.90
13673;DHT22;6909;52.202;9.876;2023-06-10T06:22:44;14.80;99.90
13673;DHT22;6909;52.202;9.876;2023-06-10T06:25:11;14.90;99.90
13673;DHT22;6909;52.202;9.876;2023-06-10T06:27:38;15.10;99.90
13673;DHT22;6909;52.202;9.876;2023-06-10T06:30:07;15.40;99.90
13673;DHT22;6909;52.202;9.876;2023-06-10T06:32:34;15.50;99.90
13673;DHT22;6909;52.202;9.876;2023-06-10T06:35:00;15.80;99.90
13673;DHT22;6909;52.202;9.876;2023-06-10T06:37:27;16.00;99.90
13673;DHT22;6909;52.202;9.876;2023-06-10T06:39:54;15.80;99.90
13673;DHT22;6909;52.202;9.876;2023-06-10T06:42:20;15.90;99.90
13673;DHT22;6909;52.202;9.876;2023-06-10T06:44:47;16.30;99.90
13673;DHT22;6909;52.202;9.876;2023-06-10T06:47:15;16.90;99.90
13673;DHT22;6909;52.202;9.876;2023-06-10T06:49:45;17.40;99.90
13673;DHT22;6909;52.202;9.876;2023-06-10T06:52:12;17.40;99.90
13673;DHT22;6909;52.202;9.876;2023-06-10T06:54:39;17.60;99.90
13673;DHT22;6909;52.202;9.876;2023-06-10T06:57:06;18.20;99.90
13673;DHT22;6909;52.202;9.876;2023-06-10T06:59:33;18.80;99.90
13673;DHT22;6909;52.202;9.876;2023-06-10T07:02:00;20.40;99.90
13673;DHT22;6909;52.202;9.876;2023-06-10T07:04:28;20.70;99.90
13673;DHT22;6909;52.202;9.876;2023-06-10T07:06:55;21.70;99.90
13673;DHT22;6909;52.202;9.876;2023-06-10T07:09:22;22.20;99.90
13673;DHT22;6909;52.202;9.876;2023-06-10T07:11:49;23.30;99.90
13673;DHT22;6909;52.202;9.876;2023-06-10T07:14:15;23.00;99.90
13673;DHT22;6909;52.202;9.876;2023-06-10T07:16:42;24.20;99.90
13673;DHT22;6909;52.202;9.876;2023-06-10T07:19:10;24.70;99.90
13673;DHT22;6909;52.202;9.876;2023-06-10T07:21:38;24.80;99.90
13673;DHT22;6909;52.202;9.876;2023-06-10T07:24:05;26.60;99.90
13673;DHT22;6909;52.202;9.876;2023-06-10T07:26:32;27.10;99.90
13673;DHT22;6909;52.202;9.876;2023-06-10T07:28:59;24.80;1.00
13673;DHT22;6909;52.202;9.876;2023-06-10T07:31:26;24.70;99.90
13673;DHT22;6909;52.202;9.876;2023-06-10T07:33:52;24.90;99.90
13673;DHT22;6909;52.202;9.876;2023-06-10T07:36:19;26.20;1.00
13673;DHT22;6909;52.202;9.876;2023-06-10T07:38:47;26.70;12.20
13673;DHT22;6909;52.202;9.876;2023-06-10T07:41:14;27.10;1.00
13673;DHT22;6909;52.202;9.876;2023-06-10T07:43:43;25.50;1.00
13673;DHT22;6909;52.202;9.876;2023-06-10T07:46:10;24.60;1.00
13673;DHT22;6909;52.202;9.876;2023-06-10T07:48:36;24.70;99.90
13673;DHT22;6909;52.202;9.876;2023-06-10T07:51:03;27.30;1.00
13673;DHT22;6909;52.202;9.876;2023-06-10T07:53:30;25.40;99.90
13673;DHT22;6909;52.202;9.876;2023-06-10T07:55:58;26.30;1.00
13673;DHT22;6909;52.202;9.876;2023-06-10T07:58:24;27.50;99.90
13673;DHT22;6909;52.202;9.876;2023-06-10T08:00:51;27.40;1.00
13673;DHT22;6909;52.202;9.876;2023-06-10T08:03:18;25.60;1.00
13673;DHT22;6909;52.202;9.876;2023-06-10T08:05:44;26.90;1.00
13673;DHT22;6909;52.202;9.876;2023-06-10T08:08:11;26.70;27.70
13673;DHT22;6909;52.202;9.876;2023-06-10T08:10:37;27.70;1.00
13673;DHT22;6909;52.202;9.876;2023-06-10T08:13:05;27.60;1.00
13673;DHT22;6909;52.202;9.876;2023-06-10T08:15:32;28.50;99.90
13673;DHT22;6909;52.202;9.876;2023-06-10T08:17:59;27.20;1.00
13673;DHT22;6909;52.202;9.876;2023-06-10T08:20:26;25.20;99.90
13673;DHT22;6909;52.202;9.876;2023-06-10T08:22:52;25.70;1.00
13673;DHT22;6909;52.202;9.876;2023-06-10T08:25:19;27.20;1.00
13673;DHT22;6909;52.202;9.876;2023-06-10T08:27:47;27.30;90.90
13673;DHT22;6909;52.202;9.876;2023-06-10T08:30:15;27.20;1.00
13673;DHT22;6909;52.202;9.876;2023-06-10T08:32:42;27.20;70.20
13673;DHT22;6909;52.202;9.876;2023-06-10T08:35:08;26.00;99.90
13673;DHT22;6909;52.202;9.876;2023-06-10T08:37:35;25.30;1.00
13673;DHT22;6909;52.202;9.876;2023-06-10T08:40:02;24.50;99.90
13673;DHT22;6909;52.202;9.876;2023-06-10T08:42:34;25.00;99.90
13673;DHT22;6909;52.202;9.876;2023-06-10T08:45:05;27.30;1.00
13673;DHT22;6909;52.202;9.876;2023-06-10T08:47:35;25.30;99.90
13673;DHT22;6909;52.202;9.876;2023-06-10T08:50:04;25.40;1.00
13673;DHT22;6909;52.202;9.876;2023-06-10T08:52:36;26.30;99.90
13673;DHT22;6909;52.202;9.876;2023-06-10T08:55:07;26.30;1.00
13673;DHT22;6909;52.202;9.876;2023-06-10T08:57:36;24.80;99.90
13673;DHT22;6909;52.202;9.876;2023-06-10T09:00:05;24.10;99.90
13673;DHT22;6909;52.202;9.876;2023-06-10T09:02:34;24.10;1.00
13673;DHT22;6909;52.202;9.876;2023-06-10T09:05:02;23.60;1.00
13673;DHT22;6909;52.202;9.876;2023-06-10T09:07:30;23.40;90.00
13673;DHT22;6909;52.202;9.876;2023-06-10T09:10:01;23.10;1.00
13673;DHT22;6909;52.202;9.876;2023-06-10T09:12:29;22.90;1.00
13673;DHT22;6909;52.202;9.876;2023-06-10T09:14:56;22.70;1.00
13673;DHT22;6909;52.202;9.876;2023-06-10T09:17:23;22.60;1.00
13673;DHT22;6909;52.202;9.876;2023-06-10T09:19:52;22.60;1.00
13673;DHT22;6909;52.202;9.876;2023-06-10T09:22:21;22.30;99.90
13673;DHT22;6909;52.202;9.876;2023-06-10T09:24:48;22.00;1.00
13673;DHT22;6909;52.202;9.876;2023-06-10T09:27:14;21.70;99.90
13673;DHT22;6909;52.202;9.876;2023-06-10T09:29:48;21.60;99.90
13673;DHT22;6909;52.202;9.876;2023-06-10T09:32:17;21.70;99.90
13673;DHT22;6909;52.202;9.876;2023-06-10T09:34:45;21.60;99.90
13673;DHT22;6909;52.202;9.876;2023-06-10T09:37:19;21.70;99.90
13673;DHT22;6909;52.202;9.876;2023-06-10T09:40:01;21.60;99.90
13673;DHT22;6909;52.202;9.876;2023-06-10T09:42:32;21.40;99.90
13673;DHT22;6909;52.202;9.876;2023-06-10T09:44:59;21.70;99.90
13673;DHT22;6909;52.202;9.876;2023-06-10T09:47:26;21.90;99.90
13673;DHT22;6909;52.202;9.876;2023-06-10T09:49:53;21.90;99.90
13673;DHT22;6909;52.202;9.876;2023-06-10T09:52:23;22.00;99.90
13673;DHT22;6909;52.202;9.876;2023-06-10T09:54:50;22.40;56.00
13673;DHT22;6909;52.202;9.876;2023-06-10T09:57:18;22.50;99.90
13673;DHT22;6909;52.202;9.876;2023-06-10T09:59:45;22.20;99.90
13673;DHT22;6909;52.202;9.876;2023-06-10T10:02:15;22.10;99.90
13673;DHT22;6909;52.202;9.876;2023-06-10T10:04:42;22.30;99.90
13673;DHT22;6909;52.202;9.876;2023-06-10T10:07:09;21.90;99.90
13673;DHT22;6909;52.202;9.876;2023-06-10T10:09:38;22.20;99.90
13673;DHT22;6909;52.202;9.876;2023-06-10T10:12:09;22.50;99.90
13673;DHT22;6909;52.202;9.876;2023-06-10T10:14:37;22.40;99.90
13673;DHT22;6909;52.202;9.876;2023-06-10T10:17:05;22.50;99.90
13673;DHT22;6909;52.202;9.876;2023-06-10T10:19:38;22.70;99.90
13673;DHT22;6909;52.202;9.876;2023-06-10T10:22:08;22.90;99.90
13673;DHT22;6909;52.202;9.876;2023-06-10T10:24:41;22.70;99.90
13673;DHT22;6909;52.202;9.876;2023-06-10T10:27:14;22.90;99.90
13673;DHT22;6909;52.202;9.876;2023-06-10T10:29:47;22.80;99.90
13673;DHT22;6909;52.202;9.876;2023-06-10T10:32:14;22.60;99.90
13673;DHT22;6909;52.202;9.876;2023-06-10T10:34:46;23.10;99.90
13673;DHT22;6909;52.202;9.876;2023-06-10T10:37:14;23.00;1.00
13673;DHT22;6909;52.202;9.876;2023-06-10T10:39:43;23.10;1.00
13673;DHT22;6909;52.202;9.876;2023-06-10T10:42:10;22.90;70.10
13673;DHT22;6909;52.202;9.876;2023-06-10T10:44:37;23.10;99.90
13673;DHT22;6909;52.202;9.876;2023-06-10T10:47:08;23.20;92.70
13673;DHT22;6909;52.202;9.876;2023-06-10T10:49:35;22.90;1.00
13673;DHT22;6909;52.202;9.876;2023-06-10T10:52:04;23.00;1.00
13673;DHT22;6909;52.202;9.876;2023-06-10T10:54:32;23.10;99.90
13673;DHT22;6909;52.202;9.876;2023-06-10T10:57:21;23.30;58.90
13673;DHT22;6909;52.202;9.876;2023-06-10T10:59:53;23.70;1.00
13673;DHT22;6909;52.202;9.876;2023-06-10T11:02:37;23.60;1.00
13673;DHT22;6909;52.202;9.876;2023-06-10T11:05:06;23.70;1.00
13673;DHT22;6909;52.202;9.876;2023-06-10T11:07:34;23.70;1.00
13673;DHT22;6909;52.202;9.876;2023-06-10T11:10:05;23.90;1.00
13673;DHT22;6909;52.202;9.876;2023-06-10T11:12:56;24.10;1.00
13673;DHT22;6909;52.202;9.876;2023-06-10T11:15:24;24.70;1.00
13673;DHT22;6909;52.202;9.876;2023-06-10T11:18:11;24.60;1.00
13673;DHT22;6909;52.202;9.876;2023-06-10T11:21:00;25.30;99.90
13673;DHT22;6909;52.202;9.876;2023-06-10T11:23:34;25.10;1.00
13673;DHT22;6909;52.202;9.876;2023-06-10T11:26:15;25.00;1.00
13673;DHT22;6909;52.202;9.876;2023-06-10T11:29:05;24.80;1.00
13673;DHT22;6909;52.202;9.876;2023-06-10T11:31:35;24.70;68.50
13673;DHT22;6909;52.202;9.876;2023-06-10T11:34:05;24.80;99.90
13673;DHT22;6909;52.202;9.876;2023-06-10T11:36:33;24.50;1.00
13673;DHT22;6909;52.202;9.876;2023-06-10T11:39:02;24.60;99.90
13673;DHT22;6909;52.202;9.876;2023-06-10T11:41:30;24.70;73.50
13673;DHT22;6909;52.202;9.876;2023-06-10T11:44:00;24.70;1.00
13673;DHT22;6909;52.202;9.876;2023-06-10T11:46:28;24.70;1.00
13673;DHT22;6909;52.202;9.876;2023-06-10T11:48:58;24.70;1.00
13673;DHT22;6909;52.202;9.876;2023-06-10T11:51:26;24.70;74.60
13673;DHT22;6909;52.202;9.876;2023-06-10T11:53:53;24.60;28.70
13673;DHT22;6909;52.202;9.876;2023-06-10T11:56:20;24.90;99.90
13673;DHT22;6909;52.202;9.876;2023-06-10T11:58:52;25.10;99.90
13673;DHT22;6909;52.202;9.876;2023-06-10T12:01:22;24.70;99.90
13673;DHT22;6909;52.202;9.876;2023-06-10T12:03:58;24.80;99.90
13673;DHT22;6909;52.202;9.876;2023-06-10T12:06:25;25.00;13.10
13673;DHT22;6909;52.202;9.876;2023-06-10T12:08:52;24.90;1.00
13673;DHT22;6909;52.202;9.876;2023-06-10T12:11:20;25.00;1.00
13673;DHT22;6909;52.202;9.876;2023-06-10T12:13:47;25.20;1.00
13673;DHT22;6909;52.202;9.876;2023-06-10T12:16:15;25.40;1.00
13673;DHT22;6909;52.202;9.876;2023-06-10T12:18:43;25.30;1.00
13673;DHT22;6909;52.202;9.876;2023-06-10T12:21:19;25.40;1.00
13673;DHT22;6909;52.202;9.876;2023-06-10T12:24:06;25.70;1.00
13673;DHT22;6909;52.202;9.876;2023-06-10T12:26:38;25.30;1.00
13673;DHT22;6909;52.202;9.876;2023-06-10T12:29:19;25.50;1.00
13673;DHT22;6909;52.202;9.876;2023-06-10T12:31:59;25.50;1.00
13673;DHT22;6909;52.202;9.876;2023-06-10T12:34:30;25.60;1.00
13673;DHT22;6909;52.202;9.876;2023-06-10T12:36:59;25.50;1.00
13673;DHT22;6909;52.202;9.876;2023-06-10T12:39:25;25.60;99.90
13673;DHT22;6909;52.202;9.876;2023-06-10T12:41:53;25.70;1.00
13673;DHT22;6909;52.202;9.876;2023-06-10T12:44:32;25.70;1.00
13673;DHT22;6909;52.202;9.876;2023-06-10T12:46:58;25.90;1.00
13673;DHT22;6909;52.202;9.876;2023-06-10T12:49:25;26.10;1.00
13673;DHT22;6909;52.202;9.876;2023-06-10T12:51:53;26.10;1.00
13673;DHT22;6909;52.202;9.876;2023-06-10T12:54:21;26.00;1.00
13673;DHT22;6909;52.202;9.876;2023-06-10T12:56:48;25.80;1.00
13673;DHT22;6909;52.202;9.876;2023-06-10T12:59:15;25.60;99.90
13673;DHT22;6909;52.202;9.876;2023-06-10T13:01:42;25.90;1.00
13673;DHT22;6909;52.202;9.876;2023-06-10T13:04:08;26.10;99.90
13673;DHT22;6909;52.202;9.876;2023-06-10T13:06:35;26.20;1.00
13673;DHT22;6909;52.202;9.876;2023-06-10T13:09:05;26.30;99.90
13673;DHT22;6909;52.202;9.876;2023-06-10T13:11:33;26.30;99.90
13673;DHT22;6909;52.202;9.876;2023-06-10T13:14:00;26.10;99.90
13673;DHT22;6909;52.202;9.876;2023-06-10T13:16:28;26.20;1.00
13673;DHT22;6909;52.202;9.876;2023-06-10T13:18:55;26.30;1.00
13673;DHT22;6909;52.202;9.876;2023-06-10T13:21:21;26.40;99.90
13673;DHT22;6909;52.202;9.876;2023-06-10T13:23:48;26.40;99.90
13673;DHT22;6909;52.202;9.876;2023-06-10T13:26:15;26.50;1.00
13673;DHT22;6909;52.202;9.876;2023-06-10T13:28:44;26.50;1.00
13673;DHT22;6909;52.202;9.876;2023-06-10T13:31:10;26.20;10.10
13673;DHT22;6909;52.202;9.876;2023-06-10T13:33:37;26.30;99.90
13673;DHT22;6909;52.202;9.876;2023-06-10T13:36:05;26.30;85.90
13673;DHT22;6909;52.202;9.876;2023-06-10T13:38:31;26.30;99.90
13673;DHT22;6909;52.202;9.876;2023-06-10T13:40:58;26.50;1.00
13673;DHT22;6909;52.202;9.876;2023-06-10T13:43:25;26.30;1.00
13673;DHT22;6909;52.202;9.876;2023-06-10T13:45:53;26.40;99.90
13673;DHT22;6909;52.202;9.876;2023-06-10T13:48:19;26.30;99.90
13673;DHT22;6909;52.202;9.876;2023-06-10T13:50:46;26.40;1.00
13673;DHT22;6909;52.202;9.876;2023-06-10T13:53:13;26.20;99.90
13673;DHT22;6909;52.202;9.876;2023-06-10T13:55:40;26.30;1.00
13673;DHT22;6909;52.202;9.876;2023-06-10T13:58:06;26.20;1.00
13673;DHT22;6909;52.202;9.876;2023-06-10T14:00:33;26.20;99.90
13673;DHT22;6909;52.202;9.876;2023-06-10T14:03:01;26.40;1.00
13673;DHT22;6909;52.202;9.876;2023-06-10T14:05:28;26.60;1.00
13673;DHT22;6909;52.202;9.876;2023-06-10T14:07:55;26.50;99.90
13673;DHT22;6909;52.202;9.876;2023-06-10T14:10:21;26.70;99.90
13673;DHT22;6909;52.202;9.876;2023-06-10T14:12:48;26.70;54.40
13673;DHT22;6909;52.202;9.876;2023-06-10T14:15:15;26.60;29.20
13673;DHT22;6909;52.202;9.876;2023-06-10T14:17:42;26.60;18.70
13673;DHT22;6909;52.202;9.876;2023-06-10T14:20:11;26.70;99.90
13673;DHT22;6909;52.202;9.876;2023-06-10T14:22:38;26.70;1.00
13673;DHT22;6909;52.202;9.876;2023-06-10T14:25:06;26.60;1.00
13673;DHT22;6909;52.202;9.876;2023-06-10T14:27:32;26.60;28.00
13673;DHT22;6909;52.202;9.876;2023-06-10T14:29:59;26.70;1.00
13673;DHT22;6909;52.202;9.876;2023-06-10T14:32:26;26.80;99.90
13673;DHT22;6909;52.202;9.876;2023-06-10T14:34:52;26.80;1.00
13673;DHT22;6909;52.202;9.876;2023-06-10T14:37:20;26.90;1.00
13673;DHT22;6909;52.202;9.876;2023-06-10T14:39:47;27.00;1.00
13673;DHT22;6909;52.202;9.876;2023-06-10T14:42:14;27.10;1.00
13673;DHT22;6909;52.202;9.876;2023-06-10T14:44:40;27.00;99.90
13673;DHT22;6909;52.202;9.876;2023-06-10T14:47:07;27.00;1.00
13673;DHT22;6909;52.202;9.876;2023-06-10T14:49:34;27.00;1.00
13673;DHT22;6909;52.202;9.876;2023-06-10T14:52:00;26.90;99.90
13673;DHT22;6909;52.202;9.876;2023-06-10T14:54:28;26.80;1.00
13673;DHT22;6909;52.202;9.876;2023-06-10T14:56:55;26.70;99.90
13673;DHT22;6909;52.202;9.876;2023-06-10T14:59:22;26.70;74.40
13673;DHT22;6909;52.202;9.876;2023-06-10T15:01:48;26.90;99.90
13673;DHT22;6909;52.202;9.876;2023-06-10T15:04:15;27.00;1.00
13673;DHT22;6909;52.202;9.876;2023-06-10T15:06:42;26.80;99.90
13673;DHT22;6909;52.202;9.876;2023-06-10T15:09:09;27.00;1.00
13673;DHT22;6909;52.202;9.876;2023-06-10T15:11:37;27.10;1.00
13673;DHT22;6909;52.202;9.876;2023-06-10T15:14:04;27.20;3.50
13673;DHT22;6909;52.202;9.876;2023-06-10T15:16:31;27.20;99.90
13673;DHT22;6909;52.202;9.876;2023-06-10T15:18:57;27.00;1.00
13673;DHT22;6909;52.202;9.876;2023-06-10T15:21:24;27.00;1.00
13673;DHT22;6909;52.202;9.876;2023-06-10T15:23:51;27.10;95.80
13673;DHT22;6909;52.202;9.876;2023-06-10T15:26:18;27.10;1.00
13673;DHT22;6909;52.202;9.876;2023-06-10T15:28:47;27.00;99.90
13673;DHT22;6909;52.202;9.876;2023-06-10T15:31:13;27.10;1.00
13673;DHT22;6909;52.202;9.876;2023-06-10T15:33:40;27.10;99.90
13673;DHT22;6909;52.202;9.876;2023-06-10T15:36:07;27.10;73.50
13673;DHT22;6909;52.202;9.876;2023-06-10T15:38:33;27.20;1.00
13673;DHT22;6909;52.202;9.876;2023-06-10T15:41:00;27.10;99.90
13673;DHT22;6909;52.202;9.876;2023-06-10T15:43:27;27.10;1.00
13673;DHT22;6909;52.202;9.876;2023-06-10T15:45:55;27.20;1.00
13673;DHT22;6909;52.202;9.876;2023-06-10T15:48:21;27.10;1.00
13673;DHT22;6909;52.202;9.876;2023-06-10T15:50:48;27.10;1.00
13673;DHT22;6909;52.202;9.876;2023-06-10T15:53:15;27.00;1.00
13673;DHT22;6909;52.202;9.876;2023-06-10T15:55:41;27.00;99.90
13673;DHT22;6909;52.202;9.876;2023-06-10T15:58:08;26.90;91.00